Time;durP1;ratioP1;P1;durP2;ratioP2;P2;SDS_P1;SDS_P2;PMS_P1;PMS_P2;Temp;Humidity;BMP_temperature;BMP_pressure;BME280_temperature;BME280_humidity;BME280_pressure;Samples;Min_cycle;Max_cycle;Signal;HPM_P1;HPM_P2
2023/04/24 00:01:22;;;;;;;;;;;8.70;99.90;;;;;;5036486;28;20326;-62
2023/04/24 00:03:47;;;;;;;;;;;8.60;99.90;;;;;;5031348;28;20367;-62
2023/04/24 00:06:13;;;;;;;;;;;8.70;99.90;;;;;;5038899;28;19913;-63
2023/04/24 00:08:39;;;;;;;;;;;8.70;99.90;;;;;;5034853;28;19924;-63
2023/04/24 00:11:04;;;;;;;;;;;8.70;99.90;;;;;;5032712;28;19917;-62
2023/04/24 00:13:30;;;;;;;;;;;8.70;99.90;;;;;;5036278;28;20361;-62
2023/04/24 00:15:56;;;;;;;;;;;8.80;99.90;;;;;;5031593;28;20290;-63
2023/04/24 00:18:21;;;;;;;;;;;8.60;99.90;;;;;;5039757;28;20016;-62
2023/04/24 00:20:47;;;;;;;;;;;8.70;99.90;;;;;;5036291;28;20039;-63
2023/04/24 00:23:13;;;;;;;;;;;8.80;99.90;;;;;;5030116;28;19948;-62
2023/04/24 00:25:38;;;;;;;;;;;8.70;99.90;;;;;;5029512;28;19917;-62
2023/04/24 00:28:04;;;;;;;;;;;8.70;99.90;;;;;;5027862;28;19920;-62
2023/04/24 00:30:30;;;;;;;;;;;8.70;99.90;;;;;;5031511;28;19913;-62
2023/04/24 00:32:55;;;;;;;;;;;8.70;99.90;;;;;;5026016;28;19926;-63
2023/04/24 00:35:21;;;;;;;;;;;8.70;99.90;;;;;;5032036;28;19913;-63
2023/04/24 00:37:46;;;;;;;;;;;8.60;99.90;;;;;;5029844;28;20072;-62
2023/04/24 00:40:12;;;;;;;;;;;8.60;99.90;;;;;;5030300;28;20365;-63
2023/04/24 00:42:38;;;;;;;;;;;8.50;99.90;;;;;;5025660;28;19913;-61
2023/04/24 00:45:04;;;;;;;;;;;8.50;99.90;;;;;;5033432;28;20015;-62
2023/04/24 00:47:30;;;;;;;;;;;8.60;99.90;;;;;;5034109;28;20034;-62
2023/04/24 00:49:56;;;;;;;;;;;8.60;99.90;;;;;;5031031;28;20020;-62
2023/04/24 00:52:24;;;;;;;;;;;8.60;99.90;;;;;;5030962;28;19921;-62
2023/04/24 00:54:49;;;;;;;;;;;8.50;99.90;;;;;;5030514;28;19913;-62
2023/04/24 00:57:16;;;;;;;;;;;8.50;99.90;;;;;;5024244;28;20439;-62
2023/04/24 00:59:42;;;;;;;;;;;8.40;99.90;;;;;;5033773;28;19949;-62
2023/04/24 01:02:10;;;;;;;;;;;8.40;99.90;;;;;;5032984;28;20011;-62
2023/04/24 01:04:36;;;;;;;;;;;8.40;99.90;;;;;;5030449;28;19924;-59
2023/04/24 01:07:02;;;;;;;;;;;8.40;99.90;;;;;;5035673;28;19913;-61
2023/04/24 01:09:28;;;;;;;;;;;8.40;99.90;;;;;;5036451;28;19979;-62
2023/04/24 01:11:54;;;;;;;;;;;8.40;99.90;;;;;;5033876;28;20396;-62
2023/04/24 01:14:20;;;;;;;;;;;8.50;99.90;;;;;;5030936;28;20400;-62
2023/04/24 01:16:45;;;;;;;;;;;8.60;99.90;;;;;;5027901;28;19939;-63
2023/04/24 01:19:12;;;;;;;;;;;8.50;99.90;;;;;;5038065;28;20406;-63
2023/04/24 01:21:38;;;;;;;;;;;8.50;99.90;;;;;;5023029;28;19913;-62
2023/04/24 01:24:04;;;;;;;;;;;8.50;99.90;;;;;;5033366;28;19916;-62
2023/04/24 01:26:30;;;;;;;;;;;8.50;99.90;;;;;;5037538;28;19913;-62
2023/04/24 01:28:56;;;;;;;;;;;8.60;99.90;;;;;;5032703;28;19924;-62
2023/04/24 01:31:21;;;;;;;;;;;8.60;99.90;;;;;;5039168;28;19982;-63
2023/04/24 01:33:47;;;;;;;;;;;8.60;99.90;;;;;;5027776;28;20028;-62
2023/04/24 01:36:13;;;;;;;;;;;8.60;99.90;;;;;;5034975;28;19932;-63
2023/04/24 01:38:39;;;;;;;;;;;8.50;99.90;;;;;;5037409;28;19924;-62
2023/04/24 01:41:04;;;;;;;;;;;8.40;99.90;;;;;;5033869;28;19958;-62
2023/04/24 01:43:30;;;;;;;;;;;8.40;99.90;;;;;;5029389;28;19971;-62
2023/04/24 01:45:55;;;;;;;;;;;8.40;99.90;;;;;;5026348;28;19913;-62
2023/04/24 01:48:22;;;;;;;;;;;8.30;99.90;;;;;;5029427;28;19983;-62
2023/04/24 01:50:47;;;;;;;;;;;8.20;99.90;;;;;;5028073;28;19959;-62
2023/04/24 01:53:13;;;;;;;;;;;8.20;99.90;;;;;;5026615;28;19988;-62
2023/04/24 01:55:38;;;;;;;;;;;8.10;99.90;;;;;;5025577;28;20292;-62
2023/04/24 01:58:04;;;;;;;;;;;8.10;99.90;;;;;;5034769;28;19916;-62
2023/04/24 02:00:30;;;;;;;;;;;8.20;99.90;;;;;;5034670;28;19916;-63
2023/04/24 02:02:55;;;;;;;;;;;8.10;99.90;;;;;;5030556;28;20373;-63
2023/04/24 02:05:21;;;;;;;;;;;8.10;99.90;;;;;;5029681;28;20282;-62
2023/04/24 02:07:46;;;;;;;;;;;8.10;99.90;;;;;;5035676;28;20296;-62
2023/04/24 02:10:12;;;;;;;;;;;8.10;99.90;;;;;;5031477;28;19913;-63
2023/04/24 02:12:38;;;;;;;;;;;8.00;99.90;;;;;;5036505;28;19932;-63
2023/04/24 02:15:04;;;;;;;;;;;8.00;99.90;;;;;;5033475;28;19912;-62
2023/04/24 02:17:30;;;;;;;;;;;8.00;99.90;;;;;;5033793;28;20401;-63
2023/04/24 02:19:56;;;;;;;;;;;7.90;99.90;;;;;;5036854;28;19963;-62
2023/04/24 02:22:21;;;;;;;;;;;7.80;99.90;;;;;;5037556;28;19945;-62
2023/04/24 02:24:47;;;;;;;;;;;7.80;99.90;;;;;;5032774;28;19956;-65
2023/04/24 02:27:13;;;;;;;;;;;7.80;99.90;;;;;;5029531;28;20404;-61
2023/04/24 02:29:38;;;;;;;;;;;7.90;99.90;;;;;;5033549;28;19928;-62
2023/04/24 02:32:04;;;;;;;;;;;8.00;99.90;;;;;;5031414;28;20384;-62
2023/04/24 02:34:30;;;;;;;;;;;7.90;99.90;;;;;;5031627;28;19952;-62
2023/04/24 02:36:55;;;;;;;;;;;8.00;99.90;;;;;;5029524;28;20327;-62
2023/04/24 02:39:21;;;;;;;;;;;8.00;99.90;;;;;;5029892;28;19913;-62
2023/04/24 02:41:46;;;;;;;;;;;8.00;99.90;;;;;;5030151;28;19913;-61
2023/04/24 02:44:12;;;;;;;;;;;8.00;99.90;;;;;;5029530;28;19948;-62
2023/04/24 02:46:38;;;;;;;;;;;8.10;99.90;;;;;;5029397;28;19913;-64
2023/04/24 02:49:03;;;;;;;;;;;8.10;99.90;;;;;;5032206;28;20270;-61
2023/04/24 02:51:29;;;;;;;;;;;8.10;99.90;;;;;;5033414;28;20004;-63
2023/04/24 02:53:55;;;;;;;;;;;8.10;99.90;;;;;;5027287;28;19917;-63
2023/04/24 02:56:20;;;;;;;;;;;8.20;99.90;;;;;;5030151;28;19920;-65
2023/04/24 02:58:46;;;;;;;;;;;8.30;99.90;;;;;;5032161;28;19913;-64
2023/04/24 03:01:11;;;;;;;;;;;8.30;99.90;;;;;;5031900;28;19913;-63
2023/04/24 03:03:37;;;;;;;;;;;8.40;99.90;;;;;;5037071;28;19913;-62
2023/04/24 03:06:05;;;;;;;;;;;8.40;99.90;;;;;;5040398;28;19953;-63
2023/04/24 03:08:31;;;;;;;;;;;8.40;99.90;;;;;;5037616;28;19919;-63
2023/04/24 03:10:57;;;;;;;;;;;8.30;99.90;;;;;;5031715;28;19919;-62
2023/04/24 03:13:22;;;;;;;;;;;8.30;99.90;;;;;;5037043;28;20360;-62
2023/04/24 03:15:48;;;;;;;;;;;8.40;99.90;;;;;;5037162;28;19967;-61
2023/04/24 03:18:13;;;;;;;;;;;8.50;99.90;;;;;;5038455;28;19913;-62
2023/04/24 03:20:39;;;;;;;;;;;8.50;99.90;;;;;;5046162;28;20353;-63
2023/04/24 03:23:05;;;;;;;;;;;8.50;99.90;;;;;;5041853;28;19963;-63
2023/04/24 03:25:30;;;;;;;;;;;8.50;99.90;;;;;;5035382;28;20361;-62
2023/04/24 03:27:56;;;;;;;;;;;8.50;99.90;;;;;;5025252;28;19928;-62
2023/04/24 03:30:22;;;;;;;;;;;8.50;99.90;;;;;;5031334;28;20365;-62
2023/04/24 03:32:47;;;;;;;;;;;8.60;99.90;;;;;;5030089;28;19925;-62
2023/04/24 03:35:13;;;;;;;;;;;8.60;99.90;;;;;;5031902;28;20280;-64
2023/04/24 03:37:39;;;;;;;;;;;8.60;99.90;;;;;;5030890;28;20274;-63
2023/04/24 03:40:05;;;;;;;;;;;8.70;99.90;;;;;;5036388;28;20012;-63
2023/04/24 03:42:31;;;;;;;;;;;8.70;99.90;;;;;;5034680;28;19961;-62
2023/04/24 03:44:57;;;;;;;;;;;8.60;99.90;;;;;;5022556;28;20312;-63
2023/04/24 03:47:22;;;;;;;;;;;8.50;99.90;;;;;;5033008;28;19994;-63
2023/04/24 03:49:48;;;;;;;;;;;8.50;99.90;;;;;;5030675;28;19913;-62
2023/04/24 03:52:13;;;;;;;;;;;8.50;99.90;;;;;;5039197;28;20016;-62
2023/04/24 03:54:39;;;;;;;;;;;8.40;99.90;;;;;;5033584;28;19921;-62
2023/04/24 03:57:05;;;;;;;;;;;8.40;99.90;;;;;;5030588;28;20431;-63
2023/04/24 03:59:30;;;;;;;;;;;8.30;99.90;;;;;;5040226;28;20288;-62
2023/04/24 04:01:56;;;;;;;;;;;8.20;99.90;;;;;;5034663;28;20487;-63
2023/04/24 04:04:22;;;;;;;;;;;8.10;99.90;;;;;;5037058;28;19959;-63
2023/04/24 04:06:47;;;;;;;;;;;8.00;99.90;;;;;;5026134;28;19952;-63
2023/04/24 04:09:13;;;;;;;;;;;7.90;99.90;;;;;;5028051;28;20400;-63
2023/04/24 04:11:39;;;;;;;;;;;7.90;99.90;;;;;;5028588;28;19925;-63
2023/04/24 04:14:05;;;;;;;;;;;7.90;99.90;;;;;;5029247;28;19924;-64
2023/04/24 04:16:30;;;;;;;;;;;7.90;99.90;;;;;;5030581;28;19920;-63
2023/04/24 04:18:56;;;;;;;;;;;7.90;99.90;;;;;;5032764;28;19921;-63
2023/04/24 04:21:22;;;;;;;;;;;8.00;99.90;;;;;;5029767;28;20262;-63
2023/04/24 04:23:48;;;;;;;;;;;8.10;99.90;;;;;;5026882;28;19967;-62
2023/04/24 04:26:13;;;;;;;;;;;8.10;99.90;;;;;;5029077;28;20388;-62
2023/04/24 04:28:39;;;;;;;;;;;8.20;99.90;;;;;;5030492;28;19917;-63
2023/04/24 04:31:05;;;;;;;;;;;8.20;99.90;;;;;;5029028;28;20349;-62
2023/04/24 04:33:31;;;;;;;;;;;8.30;99.90;;;;;;5011303;28;20015;-62
2023/04/24 04:35:57;;;;;;;;;;;8.20;99.90;;;;;;5029696;28;20000;-63
2023/04/24 04:38:22;;;;;;;;;;;8.20;99.90;;;;;;5033043;28;19913;-64
2023/04/24 04:40:48;;;;;;;;;;;8.20;99.90;;;;;;5039190;28;19913;-62
2023/04/24 04:43:14;;;;;;;;;;;8.30;99.90;;;;;;5032764;28;20360;-63
2023/04/24 04:45:42;;;;;;;;;;;8.40;99.90;;;;;;5029461;28;19921;-63
2023/04/24 04:48:08;;;;;;;;;;;8.40;99.90;;;;;;5042918;28;19920;-62
2023/04/24 04:50:34;;;;;;;;;;;8.50;99.90;;;;;;5035151;28;20338;-63
2023/04/24 04:53:00;;;;;;;;;;;8.50;99.90;;;;;;5029531;28;19967;-62
2023/04/24 04:55:26;;;;;;;;;;;8.50;99.90;;;;;;5040648;28;20366;-62
2023/04/24 04:57:51;;;;;;;;;;;8.50;99.90;;;;;;5031766;28;19920;-62
2023/04/24 05:00:17;;;;;;;;;;;8.50;99.90;;;;;;5030052;28;20438;-63
2023/04/24 05:02:43;;;;;;;;;;;8.50;99.90;;;;;;5033807;28;19913;-62
2023/04/24 05:05:08;;;;;;;;;;;8.50;99.90;;;;;;5034893;28;20377;-62
2023/04/24 05:07:34;;;;;;;;;;;8.50;99.90;;;;;;5015379;28;19917;-62
2023/04/24 05:10:00;;;;;;;;;;;8.50;99.90;;;;;;5028477;28;20380;-63
2023/04/24 05:12:26;;;;;;;;;;;8.50;99.90;;;;;;5033379;28;20015;-63
2023/04/24 05:14:52;;;;;;;;;;;8.50;99.90;;;;;;5032866;28;19922;-63
2023/04/24 05:17:18;;;;;;;;;;;8.50;99.90;;;;;;5039065;28;20009;-63
2023/04/24 05:19:43;;;;;;;;;;;8.50;99.90;;;;;;5034445;28;19914;-62
2023/04/24 05:22:10;;;;;;;;;;;8.50;99.90;;;;;;5044171;28;19917;-63
2023/04/24 05:24:36;;;;;;;;;;;8.50;99.90;;;;;;5033797;28;19943;-63
2023/04/24 05:27:02;;;;;;;;;;;8.50;99.90;;;;;;5032328;28;20330;-64
2023/04/24 05:29:30;;;;;;;;;;;8.50;99.90;;;;;;5040475;28;19966;-62
2023/04/24 05:31:56;;;;;;;;;;;8.50;99.90;;;;;;5020983;28;19967;-63
2023/04/24 05:34:21;;;;;;;;;;;8.50;99.90;;;;;;5030891;28;19913;-63
2023/04/24 05:36:47;;;;;;;;;;;8.50;99.90;;;;;;5031692;28;19913;-63
2023/04/24 05:39:13;;;;;;;;;;;8.50;99.90;;;;;;5018076;28;20284;-62
2023/04/24 05:41:39;;;;;;;;;;;8.50;99.90;;;;;;5033153;28;19925;-63
2023/04/24 05:44:05;;;;;;;;;;;8.50;99.90;;;;;;5032731;28;19922;-62
2023/04/24 05:46:30;;;;;;;;;;;8.60;99.90;;;;;;5025379;28;19918;-63
2023/04/24 05:48:56;;;;;;;;;;;8.50;99.90;;;;;;5028900;28;20380;-63
2023/04/24 05:51:21;;;;;;;;;;;8.40;99.90;;;;;;5029609;28;19913;-63
2023/04/24 05:53:47;;;;;;;;;;;8.30;99.90;;;;;;5028088;28;19924;-61
2023/04/24 05:56:13;;;;;;;;;;;8.30;99.90;;;;;;5031895;28;19917;-62
2023/04/24 05:58:39;;;;;;;;;;;8.20;99.90;;;;;;5030938;28;20399;-61
2023/04/24 06:01:04;;;;;;;;;;;8.20;99.90;;;;;;5031393;28;19922;-63
2023/04/24 06:03:31;;;;;;;;;;;8.20;99.90;;;;;;5031388;28;19925;-63
2023/04/24 06:05:57;;;;;;;;;;;8.20;99.90;;;;;;5032430;28;20369;-63
2023/04/24 06:08:22;;;;;;;;;;;8.20;99.90;;;;;;5029868;28;19913;-62
2023/04/24 06:10:48;;;;;;;;;;;8.10;99.90;;;;;;5027350;28;20326;-63
2023/04/24 06:13:13;;;;;;;;;;;8.20;99.90;;;;;;5035746;28;20007;-67
2023/04/24 06:15:40;;;;;;;;;;;8.20;99.90;;;;;;5023360;28;20281;-63
2023/04/24 06:18:06;;;;;;;;;;;8.20;99.90;;;;;;5019867;28;19917;-62
2023/04/24 06:20:31;;;;;;;;;;;8.20;99.90;;;;;;5026682;28;19920;-63
2023/04/24 06:22:57;;;;;;;;;;;8.30;99.90;;;;;;5035007;28;19924;-63
2023/04/24 06:25:25;;;;;;;;;;;8.30;99.90;;;;;;5029757;28;19914;-62
2023/04/24 06:27:50;;;;;;;;;;;8.30;99.90;;;;;;5010193;28;19913;-64
2023/04/24 06:30:16;;;;;;;;;;;8.30;99.90;;;;;;5021524;28;19920;-65
2023/04/24 06:32:42;;;;;;;;;;;8.30;99.90;;;;;;5027076;28;20395;-65
2023/04/24 06:35:09;;;;;;;;;;;8.40;99.90;;;;;;5032252;28;19920;-64
2023/04/24 06:37:35;;;;;;;;;;;8.40;99.90;;;;;;5026669;28;19913;-65
2023/04/24 06:40:00;;;;;;;;;;;8.50;99.90;;;;;;5037938;28;19959;-63
2023/04/24 06:42:26;;;;;;;;;;;8.50;99.90;;;;;;5023554;28;19913;-64
2023/04/24 06:44:52;;;;;;;;;;;8.50;99.90;;;;;;5037699;28;19924;-65
2023/04/24 06:47:18;;;;;;;;;;;8.50;99.90;;;;;;5040854;28;19916;-66
2023/04/24 06:49:44;;;;;;;;;;;8.60;99.90;;;;;;5035283;28;19913;-66
2023/04/24 06:52:09;;;;;;;;;;;8.60;99.90;;;;;;5036113;28;19932;-65
2023/04/24 06:54:35;;;;;;;;;;;8.70;99.90;;;;;;5036948;28;19913;-64
2023/04/24 06:57:02;;;;;;;;;;;8.70;99.90;;;;;;5024553;28;19913;-64
2023/04/24 06:59:28;;;;;;;;;;;8.70;99.90;;;;;;5028934;28;20122;-63
2023/04/24 07:01:53;;;;;;;;;;;8.70;99.90;;;;;;5027665;28;19944;-65
2023/04/24 07:04:19;;;;;;;;;;;8.70;99.90;;;;;;5035980;28;19917;-63
2023/04/24 07:06:45;;;;;;;;;;;8.70;99.90;;;;;;5030797;28;19914;-63
2023/04/24 07:09:13;;;;;;;;;;;8.90;99.90;;;;;;5027996;28;19913;-64
2023/04/24 07:11:40;;;;;;;;;;;8.90;99.90;;;;;;5039396;28;19927;-64
2023/04/24 07:14:06;;;;;;;;;;;8.90;99.90;;;;;;5040470;28;19925;-63
2023/04/24 07:16:31;;;;;;;;;;;8.90;99.90;;;;;;5048852;28;19921;-63
2023/04/24 07:18:57;;;;;;;;;;;9.00;99.90;;;;;;5034238;28;19921;-63
2023/04/24 07:21:23;;;;;;;;;;;9.00;99.90;;;;;;5046298;28;19913;-63
2023/04/24 07:23:48;;;;;;;;;;;9.00;99.90;;;;;;5041148;28;20003;-63
2023/04/24 07:26:14;;;;;;;;;;;9.00;99.90;;;;;;5039719;28;19913;-63
2023/04/24 07:28:40;;;;;;;;;;;9.00;99.90;;;;;;5041058;28;19917;-64
2023/04/24 07:31:06;;;;;;;;;;;9.00;99.90;;;;;;5045100;28;19916;-63
2023/04/24 07:33:32;;;;;;;;;;;9.00;99.90;;;;;;5040576;28;20292;-63
2023/04/24 07:35:58;;;;;;;;;;;9.10;99.90;;;;;;5039832;28;19921;-63
2023/04/24 07:38:25;;;;;;;;;;;9.10;99.90;;;;;;5045016;28;20008;-64
2023/04/24 07:40:51;;;;;;;;;;;9.10;99.90;;;;;;5041008;28;19936;-64
2023/04/24 07:43:17;;;;;;;;;;;9.20;99.90;;;;;;5041656;28;20341;-64
2023/04/24 07:45:42;;;;;;;;;;;9.20;99.90;;;;;;5041462;28;20293;-63
2023/04/24 07:48:08;;;;;;;;;;;9.30;99.90;;;;;;5044960;28;19948;-64
2023/04/24 07:50:34;;;;;;;;;;;9.30;99.90;;;;;;5040502;28;19913;-63
2023/04/24 07:53:00;;;;;;;;;;;9.30;99.90;;;;;;5038872;28;19927;-63
2023/04/24 07:55:25;;;;;;;;;;;9.40;99.90;;;;;;5047050;28;19923;-64
2023/04/24 07:57:51;;;;;;;;;;;9.50;99.90;;;;;;5040544;28;20280;-64
2023/04/24 08:00:17;;;;;;;;;;;9.50;99.90;;;;;;5038406;28;19935;-64
2023/04/24 08:02:42;;;;;;;;;;;9.60;99.90;;;;;;5040203;28;19914;-64
2023/04/24 08:05:08;;;;;;;;;;;9.60;99.90;;;;;;5044362;28;20433;-63
2023/04/24 08:07:35;;;;;;;;;;;9.60;99.90;;;;;;5039878;28;19912;-65
2023/04/24 08:10:00;;;;;;;;;;;9.70;99.90;;;;;;5038913;28;20000;-63
2023/04/24 08:12:27;;;;;;;;;;;9.70;99.90;;;;;;5046289;28;20004;-64
2023/04/24 08:14:53;;;;;;;;;;;9.60;99.90;;;;;;5040952;28;19920;-63
2023/04/24 08:17:18;;;;;;;;;;;9.70;99.90;;;;;;5037794;28;20230;-64
2023/04/24 08:19:48;;;;;;;;;;;9.90;99.90;;;;;;5046582;28;20011;-63
2023/04/24 08:22:14;;;;;;;;;;;9.90;99.90;;;;;;5031771;28;20016;-64
2023/04/24 08:24:39;;;;;;;;;;;10.00;99.90;;;;;;5040721;28;19974;-64
2023/04/24 08:27:05;;;;;;;;;;;10.00;99.90;;;;;;5043634;28;19984;-64
2023/04/24 08:29:30;;;;;;;;;;;10.10;99.90;;;;;;5021901;28;19920;-63
2023/04/24 08:31:56;;;;;;;;;;;10.10;99.90;;;;;;5038725;28;19917;-63
2023/04/24 08:34:22;;;;;;;;;;;10.30;99.90;;;;;;5045743;28;19917;-62
2023/04/24 08:36:48;;;;;;;;;;;10.50;99.90;;;;;;5039893;28;20019;-64
2023/04/24 08:39:14;;;;;;;;;;;10.70;99.90;;;;;;5038167;28;19956;-63
2023/04/24 08:41:42;;;;;;;;;;;11.00;99.90;;;;;;5039837;28;20392;-63
2023/04/24 08:44:09;;;;;;;;;;;11.30;99.90;;;;;;5044216;28;19921;-63
2023/04/24 08:46:35;;;;;;;;;;;11.50;99.90;;;;;;5047315;28;19944;-63
2023/04/24 08:49:02;;;;;;;;;;;11.50;99.90;;;;;;5032740;28;19949;-64
2023/04/24 08:51:28;;;;;;;;;;;11.50;99.90;;;;;;5043917;28;19920;-63
2023/04/24 08:53:54;;;;;;;;;;;11.90;99.90;;;;;;5040029;28;19917;-64
2023/04/24 08:56:21;;;;;;;;;;;12.20;99.90;;;;;;5036958;28;19963;-64
2023/04/24 08:58:47;;;;;;;;;;;12.40;99.90;;;;;;5039256;28;19913;-63
2023/04/24 09:01:13;;;;;;;;;;;12.30;99.90;;;;;;5044056;28;19919;-63
2023/04/24 09:03:39;;;;;;;;;;;12.10;99.90;;;;;;5038295;28;19912;-63
2023/04/24 09:06:06;;;;;;;;;;;12.10;99.90;;;;;;5038996;28;20008;-63
2023/04/24 09:08:32;;;;;;;;;;;12.10;99.90;;;;;;5042803;28;19913;-64
2023/04/24 09:10:58;;;;;;;;;;;12.10;99.90;;;;;;5040296;28;19923;-64
2023/04/24 09:13:24;;;;;;;;;;;12.20;99.90;;;;;;5037295;28;19932;-63
2023/04/24 09:15:50;;;;;;;;;;;12.30;99.90;;;;;;5039087;28;19960;-62
2023/04/24 09:18:15;;;;;;;;;;;12.30;99.90;;;;;;5044446;28;20369;-63
2023/04/24 09:20:57;;;;;;;;;;;12.30;99.90;;;;;;5038343;28;19913;-64
2023/04/24 09:23:22;;;;;;;;;;;12.10;99.90;;;;;;5036008;28;19967;-63
2023/04/24 09:25:53;;;;;;;;;;;11.80;99.90;;;;;;5038075;28;19917;-63
2023/04/24 09:28:24;;;;;;;;;;;11.90;99.90;;;;;;5040292;28;19949;-62
2023/04/24 09:31:01;;;;;;;;;;;12.20;99.90;;;;;;5039037;28;20376;-64
2023/04/24 09:33:27;;;;;;;;;;;12.40;99.90;;;;;;5037442;28;20399;-62
2023/04/24 09:35:52;;;;;;;;;;;12.30;99.90;;;;;;5038376;28;19913;-64
2023/04/24 09:38:18;;;;;;;;;;;12.40;99.90;;;;;;5044597;28;20000;-64
2023/04/24 09:40:44;;;;;;;;;;;12.50;99.90;;;;;;5038620;28;19913;-63
2023/04/24 09:43:12;;;;;;;;;;;12.70;99.90;;;;;;5039117;28;19921;-64
2023/04/24 09:45:38;;;;;;;;;;;12.60;99.90;;;;;;5040086;28;19982;-65
2023/04/24 09:48:06;;;;;;;;;;;12.70;99.90;;;;;;5042103;28;19913;-63
2023/04/24 09:50:32;;;;;;;;;;;12.70;99.90;;;;;;5034565;28;19913;-64
2023/04/24 09:52:58;;;;;;;;;;;12.70;99.90;;;;;;5036565;28;19925;-65
2023/04/24 09:55:25;;;;;;;;;;;12.90;99.90;;;;;;5044785;28;19912;-62
2023/04/24 09:57:57;;;;;;;;;;;13.00;99.90;;;;;;5038529;28;19935;-63
2023/04/24 10:00:26;;;;;;;;;;;12.70;99.90;;;;;;5035607;28;19914;-64
2023/04/24 10:02:55;;;;;;;;;;;12.60;99.90;;;;;;5036937;28;19913;-64
2023/04/24 10:05:29;;;;;;;;;;;12.70;99.90;;;;;;5044410;28;19919;-64
2023/04/24 10:08:00;;;;;;;;;;;12.70;99.90;;;;;;5039037;28;19920;-63
2023/04/24 10:10:26;;;;;;;;;;;12.60;99.90;;;;;;5037170;28;19936;-63
2023/04/24 10:12:52;;;;;;;;;;;12.70;99.90;;;;;;5036756;28;20357;-63
2023/04/24 10:15:21;;;;;;;;;;;13.00;99.90;;;;;;5044330;28;19957;-64
2023/04/24 10:17:53;;;;;;;;;;;13.20;99.90;;;;;;5037715;28;20379;-64
2023/04/24 10:20:22;;;;;;;;;;;13.40;99.90;;;;;;5036115;28;19914;-64
2023/04/24 10:22:52;;;;;;;;;;;13.60;99.90;;;;;;5037976;28;19913;-62
2023/04/24 10:25:19;;;;;;;;;;;13.60;99.90;;;;;;5043691;28;19959;-64
2023/04/24 10:27:46;;;;;;;;;;;13.50;99.90;;;;;;5038087;28;19913;-63
2023/04/24 10:30:12;;;;;;;;;;;13.30;99.90;;;;;;5034608;28;19913;-63
2023/04/24 10:32:38;;;;;;;;;;;13.20;99.90;;;;;;5039816;28;20442;-62
2023/04/24 10:35:03;;;;;;;;;;;12.90;99.90;;;;;;5042125;28;19913;-63
2023/04/24 10:37:35;;;;;;;;;;;12.70;99.90;;;;;;5040612;28;20277;-63
2023/04/24 10:40:01;;;;;;;;;;;12.70;99.90;;;;;;5040734;28;20288;-63
2023/04/24 10:42:27;;;;;;;;;;;12.70;99.90;;;;;;5048273;28;19913;-63
2023/04/24 10:44:53;;;;;;;;;;;13.10;99.90;;;;;;5042701;28;19927;-63
2023/04/24 10:47:19;;;;;;;;;;;13.10;99.90;;;;;;5039430;28;19919;-64
2023/04/24 10:49:45;;;;;;;;;;;13.00;99.90;;;;;;5041872;28;20359;-63
2023/04/24 10:52:11;;;;;;;;;;;13.40;99.90;;;;;;5046232;28;20375;-65
2023/04/24 10:54:40;;;;;;;;;;;13.60;99.90;;;;;;5042117;28;19913;-63
2023/04/24 10:57:21;;;;;;;;;;;13.50;99.90;;;;;;5041397;28;19920;-63
2023/04/24 10:59:47;;;;;;;;;;;13.50;99.90;;;;;;5030844;28;19913;-64
2023/04/24 11:02:16;;;;;;;;;;;13.70;99.90;;;;;;5039763;28;19913;-64
2023/04/24 11:04:42;;;;;;;;;;;13.80;99.90;;;;;;5042174;28;19913;-64
2023/04/24 11:07:11;;;;;;;;;;;13.90;99.90;;;;;;5045702;28;19920;-63
2023/04/24 11:09:40;;;;;;;;;;;13.70;99.90;;;;;;5041496;28;20424;-64
2023/04/24 11:12:10;;;;;;;;;;;13.70;99.90;;;;;;5040785;28;19953;-64
2023/04/24 11:14:55;;;;;;;;;;;13.90;99.90;;;;;;5044452;28;20323;-64
2023/04/24 11:17:42;;;;;;;;;;;14.10;99.90;;;;;;5047157;28;19944;-64
2023/04/24 11:20:09;;;;;;;;;;;13.80;99.90;;;;;;5037744;28;19940;-64
2023/04/24 11:22:35;;;;;;;;;;;13.90;99.90;;;;;;5041001;28;19913;-63
2023/04/24 11:25:04;;;;;;;;;;;13.90;99.90;;;;;;5039574;28;20369;-63
2023/04/24 11:27:32;;;;;;;;;;;14.00;99.90;;;;;;5030081;28;19919;-64
2023/04/24 11:29:58;;;;;;;;;;;13.90;99.90;;;;;;5041968;28;20473;-63
2023/04/24 11:32:26;;;;;;;;;;;13.70;99.90;;;;;;5039439;28;19948;-64
2023/04/24 11:34:56;;;;;;;;;;;13.60;99.90;;;;;;5040965;28;20281;-63
2023/04/24 11:37:29;;;;;;;;;;;13.50;99.90;;;;;;5046893;28;19955;-64
2023/04/24 11:39:55;;;;;;;;;;;13.00;99.90;;;;;;5032544;28;19913;-63
2023/04/24 11:42:22;;;;;;;;;;;13.10;99.90;;;;;;5035487;28;19917;-65
2023/04/24 11:44:47;;;;;;;;;;;13.10;99.90;;;;;;5041265;28;19928;-64
2023/04/24 11:47:13;;;;;;;;;;;13.40;99.90;;;;;;5045156;28;19913;-63
2023/04/24 11:49:39;;;;;;;;;;;13.50;99.90;;;;;;5034315;28;19920;-61
2023/04/24 11:52:05;;;;;;;;;;;13.90;99.90;;;;;;5048809;28;20422;-64
2023/04/24 11:54:30;;;;;;;;;;;14.60;99.90;;;;;;5039283;28;20007;-64
2023/04/24 11:56:57;;;;;;;;;;;15.10;99.90;;;;;;5039415;28;19913;-63
2023/04/24 11:59:22;;;;;;;;;;;15.50;99.90;;;;;;5046471;28;19920;-64
2023/04/24 12:01:48;;;;;;;;;;;15.20;99.90;;;;;;5040718;28;19913;-64
2023/04/24 12:04:15;;;;;;;;;;;15.70;99.90;;;;;;5038810;28;19957;-64
2023/04/24 12:07:00;;;;;;;;;;;15.30;99.90;;;;;;5041132;28;19923;-64
2023/04/24 12:09:25;;;;;;;;;;;15.00;99.90;;;;;;5046931;28;19912;-63
2023/04/24 12:11:58;;;;;;;;;;;14.70;99.90;;;;;;5040227;28;19921;-64
2023/04/24 12:14:24;;;;;;;;;;;14.40;99.90;;;;;;5024357;28;19935;-62
2023/04/24 12:16:50;;;;;;;;;;;14.20;99.90;;;;;;5040486;28;19920;-63
2023/04/24 12:19:22;;;;;;;;;;;14.20;99.90;;;;;;5045212;28;19913;-64
2023/04/24 12:22:01;;;;;;;;;;;14.30;99.90;;;;;;5029491;28;19920;-63
2023/04/24 12:24:26;;;;;;;;;;;14.30;99.90;;;;;;5036966;28;19913;-64
2023/04/24 12:26:53;;;;;;;;;;;14.50;99.90;;;;;;5038630;28;19920;-65
2023/04/24 12:29:22;;;;;;;;;;;14.20;99.90;;;;;;5045067;28;19913;-63
2023/04/24 12:31:47;;;;;;;;;;;14.30;99.90;;;;;;5039270;28;19913;-63
2023/04/24 12:34:23;;;;;;;;;;;14.10;99.90;;;;;;5038546;28;20004;-64
2023/04/24 12:36:49;;;;;;;;;;;13.60;99.90;;;;;;5040112;28;20403;-64
2023/04/24 12:39:18;;;;;;;;;;;13.50;99.90;;;;;;5044865;28;19995;-63
2023/04/24 12:41:57;;;;;;;;;;;13.30;99.90;;;;;;5038748;28;19959;-63
2023/04/24 12:44:30;;;;;;;;;;;13.30;99.90;;;;;;5039636;28;19927;-64
2023/04/24 12:46:56;;;;;;;;;;;13.30;99.90;;;;;;5031248;28;20027;-64
2023/04/24 12:49:21;;;;;;;;;;;13.50;99.90;;;;;;5036962;28;20409;-65
2023/04/24 12:51:47;;;;;;;;;;;13.60;99.90;;;;;;5039227;28;20008;-64
2023/04/24 12:54:12;;;;;;;;;;;13.80;99.90;;;;;;5043937;28;19917;-63
2023/04/24 12:56:39;;;;;;;;;;;13.80;99.90;;;;;;5035723;28;20004;-64
2023/04/24 12:59:04;;;;;;;;;;;14.30;99.90;;;;;;5038332;28;19913;-64
2023/04/24 13:01:30;;;;;;;;;;;15.20;99.90;;;;;;5046428;28;19924;-63
2023/04/24 13:03:56;;;;;;;;;;;15.50;99.90;;;;;;5040469;28;20287;-63
2023/04/24 13:06:21;;;;;;;;;;;15.90;99.90;;;;;;5036978;28;19913;-63
2023/04/24 13:08:48;;;;;;;;;;;16.00;99.90;;;;;;5038798;28;19913;-64
2023/04/24 13:11:14;;;;;;;;;;;16.40;99.90;;;;;;5041811;28;19951;-62
2023/04/24 13:13:39;;;;;;;;;;;16.40;99.90;;;;;;5038921;28;19979;-62
2023/04/24 13:16:05;;;;;;;;;;;16.30;99.90;;;;;;5038820;28;19913;-63
2023/04/24 13:18:31;;;;;;;;;;;16.20;99.90;;;;;;5046493;28;19917;-65
2023/04/24 13:20:56;;;;;;;;;;;16.20;99.90;;;;;;5040433;28;20376;-64
2023/04/24 13:23:22;;;;;;;;;;;16.00;99.90;;;;;;5036466;28;20010;-63
2023/04/24 13:25:48;;;;;;;;;;;16.10;99.90;;;;;;5038368;28;19913;-62
2023/04/24 13:28:14;;;;;;;;;;;16.10;99.90;;;;;;5040550;28;20280;-64
2023/04/24 13:30:39;;;;;;;;;;;16.10;99.90;;;;;;5037202;28;19913;-63
2023/04/24 13:33:05;;;;;;;;;;;15.80;99.90;;;;;;5038412;28;20021;-64
2023/04/24 13:35:31;;;;;;;;;;;15.60;99.90;;;;;;5045884;28;19923;-63
2023/04/24 13:37:57;;;;;;;;;;;15.70;99.90;;;;;;5039904;28;20011;-64
2023/04/24 13:40:22;;;;;;;;;;;15.50;99.90;;;;;;5035631;28;19913;-63
2023/04/24 13:42:48;;;;;;;;;;;15.60;99.90;;;;;;5037939;28;20393;-63
2023/04/24 13:45:14;;;;;;;;;;;15.00;99.90;;;;;;5040271;28;19921;-63
2023/04/24 13:47:40;;;;;;;;;;;15.00;99.90;;;;;;5037139;28;20284;-62
2023/04/24 13:50:09;;;;;;;;;;;15.00;99.90;;;;;;5036980;28;20281;-63
2023/04/24 13:52:34;;;;;;;;;;;15.50;99.90;;;;;;5045876;28;19990;-63
2023/04/24 13:55:00;;;;;;;;;;;15.70;99.90;;;;;;5031306;28;20327;-63
2023/04/24 13:57:26;;;;;;;;;;;15.70;99.90;;;;;;5040833;28;19913;-65
2023/04/24 13:59:52;;;;;;;;;;;15.50;99.90;;;;;;5037571;28;19913;-64
2023/04/24 14:02:17;;;;;;;;;;;15.40;99.90;;;;;;5043610;28;19920;-66
2023/04/24 14:04:43;;;;;;;;;;;15.10;99.90;;;;;;5031609;28;20361;-62
2023/04/24 14:07:08;;;;;;;;;;;14.90;99.90;;;;;;5045702;28;19956;-63
2023/04/24 14:09:35;;;;;;;;;;;14.80;99.90;;;;;;5037408;28;19917;-63
2023/04/24 14:12:01;;;;;;;;;;;14.90;99.90;;;;;;5036706;28;19990;-63
2023/04/24 14:14:27;;;;;;;;;;;15.10;99.90;;;;;;5042473;28;20281;-62
2023/04/24 14:16:52;;;;;;;;;;;15.10;99.90;;;;;;5038548;28;20360;-64
2023/04/24 14:19:18;;;;;;;;;;;15.50;99.90;;;;;;5036138;28;19913;-65